createdAt,value
2023-05-17T00:00:03.544Z,98.74
2023-05-17T00:05:02.889Z,100
2023-05-17T00:10:03.350Z,100
2023-05-17T00:15:03.430Z,98.97
2023-05-17T00:20:03.123Z,99.39
2023-05-17T00:25:02.971Z,100
2023-05-17T00:30:02.786Z,100
2023-05-17T00:35:03.904Z,100
2023-05-17T00:40:03.228Z,100
2023-05-17T00:45:03.528Z,100
2023-05-17T00:50:03.144Z,100
2023-05-17T00:55:03.405Z,100
2023-05-17T01:00:02.937Z,100
2023-05-17T01:05:03.696Z,100
2023-05-17T01:10:03.836Z,100
2023-05-17T01:15:02.839Z,100
2023-05-17T01:20:03.961Z,100
2023-05-17T01:25:03.355Z,100
2023-05-17T01:30:03.177Z,100
2023-05-17T01:35:02.804Z,100
2023-05-17T01:40:03.081Z,100
2023-05-17T01:45:03.488Z,100
2023-05-17T01:50:03.955Z,100
2023-05-17T01:55:04.090Z,100
2023-05-17T02:00:03.332Z,100
2023-05-17T02:05:03.133Z,100
2023-05-17T02:10:02.876Z,100
2023-05-17T02:15:03.466Z,100
2023-05-17T02:20:02.869Z,100
2023-05-17T02:25:03.002Z,100
2023-05-17T02:30:02.850Z,100
2023-05-17T02:35:03.495Z,100
2023-05-17T02:40:03.036Z,100
2023-05-17T02:45:03.052Z,100
2023-05-17T02:50:02.858Z,100
2023-05-17T02:55:02.867Z,100
2023-05-17T03:00:03.448Z,100
2023-05-17T03:05:03.343Z,100
2023-05-17T03:10:03.054Z,100
2023-05-17T03:15:03.192Z,100
2023-05-17T03:20:02.971Z,100
2023-05-17T03:25:02.922Z,100
2023-05-17T03:30:02.884Z,100
2023-05-17T03:35:02.645Z,100
2023-05-17T03:40:03.449Z,100
2023-05-17T03:45:03.251Z,100
2023-05-17T03:50:03.027Z,100
2023-05-17T03:55:03.290Z,100
2023-05-17T04:00:02.624Z,100
2023-05-17T04:05:03.491Z,100
2023-05-17T04:10:03.027Z,100
2023-05-17T04:15:02.731Z,100
2023-05-17T04:20:02.696Z,100
2023-05-17T04:25:04.146Z,100
2023-05-17T04:30:04.355Z,100
2023-05-17T04:35:02.977Z,100
2023-05-17T04:40:02.609Z,100
2023-05-17T04:45:02.278Z,100
2023-05-17T04:50:03.705Z,100
2023-05-17T04:55:03.752Z,100
2023-05-17T05:00:03.056Z,99.37
2023-05-17T05:05:02.991Z,98.35
2023-05-17T05:10:03.494Z,98.38
2023-05-17T05:15:03.556Z,97.96
2023-05-17T05:20:03.226Z,96.78
2023-05-17T05:25:02.757Z,93.17
2023-05-17T05:30:02.778Z,97.81
2023-05-17T05:35:03.473Z,95.36
2023-05-17T05:40:03.395Z,95.33
2023-05-17T05:45:03.531Z,91.28
2023-05-17T05:50:02.883Z,93.48
2023-05-17T05:55:02.788Z,92.72
2023-05-17T06:00:03.422Z,91.65
2023-05-17T06:05:03.165Z,91.14
2023-05-17T06:10:02.892Z,89.35
2023-05-17T06:15:03.595Z,88.87
2023-05-17T06:20:03.625Z,90.28
2023-05-17T06:25:03.077Z,85.1
2023-05-17T06:30:07.697Z,84.13
2023-05-17T06:35:03.711Z,82.65
2023-05-17T06:40:17.219Z,84.12
2023-05-17T06:45:02.742Z,82.29
2023-05-17T06:50:02.852Z,79.62
2023-05-17T06:55:02.966Z,79.73
2023-05-17T07:00:03.465Z,78.65
2023-05-17T07:05:03.684Z,71.21
2023-05-17T07:10:02.722Z,69.71
2023-05-17T07:15:02.956Z,70.8
2023-05-17T07:20:03.356Z,65.6
2023-05-17T07:25:02.979Z,67.54
2023-05-17T07:30:02.753Z,63.75
2023-05-17T07:35:03.442Z,63.86
2023-05-17T07:40:03.051Z,69.22
2023-05-17T07:45:03.349Z,69.09
2023-05-17T07:50:03.047Z,68.81
2023-05-17T07:55:03.627Z,68.33
2023-05-17T08:00:02.707Z,57.25
2023-05-17T08:05:03.308Z,62.62
2023-05-17T08:10:03.264Z,64.46
2023-05-17T08:15:03.281Z,60.82
2023-05-17T08:20:03.086Z,58.02
2023-05-17T08:25:02.665Z,57.75
2023-05-17T08:30:14.771Z,63.64
2023-05-17T08:35:02.949Z,61.35
2023-05-17T08:40:03.718Z,54.4
2023-05-17T08:45:03.292Z,51.72
2023-05-17T08:50:03.213Z,58.55
2023-05-17T08:55:03.442Z,60.69
2023-05-17T09:00:02.838Z,58.61
2023-05-17T09:05:04.066Z,60
2023-05-17T09:10:03.298Z,55.85
2023-05-17T09:15:03.197Z,46.99
2023-05-17T09:20:03.702Z,50.3
2023-05-17T09:25:03.309Z,47.71
2023-05-17T09:30:03.004Z,52.9
2023-05-17T09:35:02.750Z,50.82
2023-05-17T09:40:02.960Z,49.95
2023-05-17T09:45:02.769Z,45.64
2023-05-17T09:50:02.808Z,52.23
2023-05-17T09:55:04.260Z,55.09
2023-05-17T10:00:03.167Z,53.35
2023-05-17T10:05:03.151Z,53.4
2023-05-17T10:10:03.003Z,42.96
2023-05-17T10:15:03.080Z,43.69
2023-05-17T10:20:03.185Z,42.43
2023-05-17T10:25:03.415Z,40.84
2023-05-17T10:30:03.211Z,51.61
2023-05-17T10:35:14.381Z,49.75
2023-05-17T10:40:03.180Z,44.49
2023-05-17T10:45:02.937Z,46.48
2023-05-17T10:50:02.720Z,42.49
2023-05-17T10:55:03.284Z,41.98
2023-05-17T11:00:03.621Z,42.25
2023-05-17T11:05:03.666Z,41.75
2023-05-17T11:10:03.048Z,41.6
2023-05-17T11:15:02.903Z,44.33
2023-05-17T11:20:03.237Z,41.39
2023-05-17T11:25:03.508Z,41.14
2023-05-17T11:30:03.278Z,46.29
2023-05-17T11:35:02.990Z,43.47
2023-05-17T11:40:02.740Z,40.9
2023-05-17T11:45:03.532Z,39.7
2023-05-17T11:50:03.403Z,39.85
2023-05-17T11:55:03.099Z,40.74
2023-05-17T12:00:02.867Z,40.48
2023-05-17T12:05:03.963Z,39.02
2023-05-17T12:10:03.542Z,36.96
2023-05-17T12:15:03.066Z,34.56
2023-05-17T12:20:02.964Z,33.78
2023-05-17T12:25:02.708Z,36.05
2023-05-17T12:30:03.480Z,35.41
2023-05-17T12:35:03.374Z,36.33
2023-05-17T12:40:02.673Z,39.45
2023-05-17T12:45:03.430Z,37.52
2023-05-17T12:50:03.170Z,36.62
2023-05-17T12:55:03.440Z,35.02
2023-05-17T13:00:02.765Z,36.54
2023-05-17T13:05:03.927Z,34.05
2023-05-17T13:10:03.348Z,33.55
2023-05-17T13:15:03.059Z,34.57
2023-05-17T13:20:03.569Z,34.3
2023-05-17T13:25:02.632Z,31.63
2023-05-17T13:30:03.445Z,34.57
2023-05-17T13:35:03.161Z,35.42
2023-05-17T13:40:03.086Z,33.66
2023-05-17T13:45:02.903Z,32.44
2023-05-17T13:50:02.902Z,31.53
2023-05-17T13:55:03.022Z,34
2023-05-17T14:00:03.364Z,31.55
2023-05-17T14:05:03.045Z,33.43
2023-05-17T14:10:02.784Z,32.49
2023-05-17T14:15:02.803Z,30.39
2023-05-17T14:20:04.032Z,31.87
2023-05-17T14:25:02.839Z,31.36
2023-05-17T14:30:03.072Z,29.74
2023-05-17T14:35:02.941Z,32.43
2023-05-17T14:40:07.454Z,32.27
2023-05-17T14:45:03.337Z,31.82
2023-05-17T14:50:03.238Z,33.42
2023-05-17T14:55:03.382Z,33.97
2023-05-17T15:00:02.707Z,32.29
2023-05-17T15:05:03.819Z,32.58
2023-05-17T15:10:03.181Z,31.62
2023-05-17T15:15:02.889Z,31.65
2023-05-17T15:20:02.950Z,30.93
2023-05-17T15:25:03.549Z,32.34
2023-05-17T15:30:03.518Z,31.55
2023-05-17T15:35:02.785Z,30.95
2023-05-17T15:40:02.707Z,34.14
2023-05-17T15:45:03.535Z,35.28
2023-05-17T15:50:03.327Z,33.89
2023-05-17T15:55:03.640Z,33.53
2023-05-17T16:00:02.568Z,35.57
2023-05-17T16:05:04.911Z,36.68
2023-05-17T16:10:03.536Z,35.93
2023-05-17T16:15:03.079Z,33.6
2023-05-17T16:20:03.476Z,34.2
2023-05-17T16:25:03.579Z,36.6
2023-05-17T16:30:03.328Z,37.3
2023-05-17T16:35:03.131Z,37.55
2023-05-17T16:40:02.992Z,37.3
2023-05-17T16:45:03.466Z,38.04
2023-05-17T16:50:02.684Z,38.17
2023-05-17T16:55:03.982Z,37.94
2023-05-17T17:00:03.138Z,35.96
2023-05-17T17:05:02.570Z,37.51
2023-05-17T17:10:03.961Z,35.61
2023-05-17T17:15:09.999Z,36.82
2023-05-17T17:20:02.937Z,37.33
2023-05-17T17:25:02.649Z,37.99
2023-05-17T17:30:03.594Z,37.59
2023-05-17T17:35:03.268Z,38.17
2023-05-17T17:40:03.023Z,38.09
2023-05-17T17:45:02.929Z,38.2
2023-05-17T17:50:02.679Z,39.7
2023-05-17T17:55:03.843Z,41.16
2023-05-17T18:00:03.351Z,42.07
2023-05-17T18:05:03.200Z,43.51
2023-05-17T18:10:02.775Z,43.53
2023-05-17T18:15:03.592Z,44.59
2023-05-17T18:20:02.619Z,45.55
2023-05-17T18:25:03.529Z,46.58
2023-05-17T18:30:03.214Z,48.79
2023-05-17T18:35:03.017Z,49.63
2023-05-17T18:40:03.185Z,50.64
2023-05-17T18:45:02.895Z,51.86
2023-05-17T18:50:02.706Z,54.64
2023-05-17T18:55:03.937Z,55.51
2023-05-17T19:00:03.672Z,54.84
2023-05-17T19:05:02.910Z,54.82
2023-05-17T19:10:02.434Z,60.87
2023-05-17T19:15:02.915Z,61.39
2023-05-17T19:20:03.553Z,63.58
2023-05-17T19:25:03.444Z,62.95
2023-05-17T19:30:03.149Z,64.21
2023-05-17T19:35:02.802Z,64.29
2023-05-17T19:40:03.536Z,63.25
2023-05-17T19:45:03.276Z,65.01
2023-05-17T19:50:03.451Z,66.88
2023-05-17T19:55:03.416Z,66.54
2023-05-17T20:00:03.079Z,67.29
2023-05-17T20:05:03.113Z,67.69
2023-05-17T20:10:02.652Z,65.02
2023-05-17T20:15:03.581Z,65.6
2023-05-17T20:20:03.357Z,69.5
2023-05-17T20:25:03.084Z,70.01
2023-05-17T20:30:02.782Z,70.41
2023-05-17T20:35:03.544Z,69.69
2023-05-17T20:40:03.314Z,70.43
2023-05-17T20:45:03.613Z,71.8
2023-05-17T20:50:03.255Z,72.27
2023-05-17T20:55:03.496Z,72.83
2023-05-17T21:00:03.304Z,72.92
2023-05-17T21:05:03.179Z,73.26
2023-05-17T21:10:02.715Z,72.84
2023-05-17T21:15:17.767Z,73.44
2023-05-17T21:20:02.670Z,73.99
2023-05-17T21:25:03.649Z,74.12
2023-05-17T21:30:02.735Z,75.54
2023-05-17T21:35:03.043Z,75.99
2023-05-17T21:40:02.874Z,76.32
2023-05-17T21:45:02.658Z,76.63
2023-05-17T21:50:03.391Z,77.16
2023-05-17T21:55:04.355Z,77.58
2023-05-17T22:00:03.356Z,77.39
2023-05-17T22:05:03.363Z,77.17
2023-05-17T22:10:03.182Z,77.45
2023-05-17T22:15:02.887Z,78.02
2023-05-17T22:20:02.625Z,78.84
2023-05-17T22:25:03.302Z,78.97
2023-05-17T22:30:03.249Z,78.93
2023-05-17T22:35:03.310Z,79.2
2023-05-17T22:40:03.055Z,79.46
2023-05-17T22:45:02.769Z,80.16
2023-05-17T22:50:03.562Z,81.32
2023-05-17T22:55:03.988Z,81.11
2023-05-17T23:00:03.103Z,81.23
2023-05-17T23:05:03.004Z,81.88
2023-05-17T23:10:02.681Z,81.93
2023-05-17T23:15:03.618Z,82.25
2023-05-17T23:20:03.351Z,82.39
2023-05-17T23:25:03.213Z,82.39
2023-05-17T23:30:02.949Z,82.37
2023-05-17T23:35:02.420Z,81.77
2023-05-17T23:40:03.432Z,82.16
2023-05-17T23:45:03.384Z,82.44
2023-05-17T23:50:02.597Z,82.71
2023-05-17T23:55:03.723Z,83.55
